Time;durP1;ratioP1;P1;durP2;ratioP2;P2;SDS_P1;SDS_P2;PMS_P1;PMS_P2;Temp;Humidity;BMP_temperature;BMP_pressure;BME280_temperature;BME280_humidity;BME280_pressure;Samples;Min_cycle;Max_cycle;Signal;HPM_P1;HPM_P2
2022/08/04 00:00:50;;;;;;;3.37;2.73;;;;;;;22.58;62.79;99759.31;4966793;28;20712;-67
2022/08/04 00:03:21;;;;;;;4.47;3.43;;;;;;;22.50;63.69;99762.75;4978924;28;20587;-68
2022/08/04 00:06:01;;;;;;;3.77;3.10;;;;;;;22.45;63.58;99759.81;4975632;28;20227;-67
2022/08/04 00:08:39;;;;;;;5.20;2.60;;;;;;;22.39;62.78;99753.47;4991084;28;20191;-68
2022/08/04 00:11:07;;;;;;;4.90;2.67;;;;;;;22.41;62.65;99761.97;4983556;28;20253;-67
2022/08/04 00:13:37;;;;;;;4.40;3.30;;;;;;;22.38;62.18;99754.44;4982458;28;20215;-67
2022/08/04 00:16:08;;;;;;;3.87;2.90;;;;;;;22.40;62.72;99758.53;4975313;28;20184;-67
2022/08/04 00:18:44;;;;;;;6.03;2.93;;;;;;;22.39;62.29;99764.75;4974281;28;20228;-67
2022/08/04 00:21:12;;;;;;;6.90;3.20;;;;;;;22.32;62.36;99760.34;4983792;28;20779;-67
2022/08/04 00:23:38;;;;;;;5.13;3.03;;;;;;;22.31;62.91;99756.88;4981741;28;20195;-67
2022/08/04 00:26:04;;;;;;;3.10;2.80;;;;;;;22.40;62.22;99758.53;4975268;28;20188;-68
2022/08/04 00:28:30;;;;;;;3.83;2.80;;;;;;;22.31;61.38;99756.06;4974075;28;20243;-67
2022/08/04 00:30:55;;;;;;;6.07;3.10;;;;;;;22.23;61.93;99754.31;4962787;28;20232;-67
2022/08/04 00:33:21;;;;;;;5.90;3.07;;;;;;;22.23;61.59;99754.31;4969552;28;20611;-67
2022/08/04 00:35:48;;;;;;;3.43;2.70;;;;;;;22.27;61.04;99757.41;4973967;28;20223;-67
2022/08/04 00:38:16;;;;;;;4.90;2.73;;;;;;;22.22;61.17;99761.34;4973230;28;20184;-68
2022/08/04 00:41:03;;;;;;;3.37;3.03;;;;;;;22.14;60.84;99761.38;4982929;28;20242;-67
2022/08/04 00:43:57;;;;;;;3.27;2.80;;;;;;;22.01;61.08;99754.00;4990185;28;20216;-68
2022/08/04 00:46:33;;;;;;;8.60;3.30;;;;;;;22.06;60.55;99743.84;4989010;28;20553;-67
2022/08/04 00:49:20;;;;;;;3.47;3.03;;;;;;;22.01;62.09;99747.97;4986890;28;20267;-68
2022/08/04 00:51:55;;;;;;;5.67;2.90;;;;;;;22.01;63.32;99751.41;4966923;28;20230;-69
2022/08/04 00:54:33;;;;;;;5.67;2.93;;;;;;;21.97;63.75;99744.03;4973180;28;20176;-67
2022/08/04 00:57:29;;;;;;;4.43;3.07;;;;;;;21.85;64.42;99752.25;4989530;28;20183;-67
2022/08/04 00:59:54;;;;;;;6.40;3.07;;;;;;;21.93;64.86;99749.63;4964139;28;20216;-67
2022/08/04 01:02:58;;;;;;;6.63;3.73;;;;;;;21.84;65.49;99747.97;4977404;28;20341;-67
2022/08/04 01:12:28;;;;;;;5.37;2.80;;;;;;;21.78;65.33;99748.66;4979954;28;20725;-67
2022/08/04 01:18:52;;;;;;;4.10;2.60;;;;;;;21.63;65.45;99747.69;4957462;28;20270;-67
2022/08/04 01:21:29;;;;;;;6.53;3.17;;;;;;;21.53;66.20;99748.66;4973847;28;20230;-67
2022/08/04 01:24:05;;;;;;;3.70;2.90;;;;;;;21.63;66.70;99739.84;4973008;28;20186;-68
2022/08/04 01:36:44;;;;;;;3.63;2.97;;;;;;;21.48;66.48;99744.88;4973988;28;20242;-67
2022/08/04 01:41:55;;;;;;;7.60;3.37;;;;;;;21.53;68.67;99748.66;4977695;28;20249;-68
2022/08/04 01:44:23;;;;;;;4.97;3.23;;;;;;;21.54;68.29;99746.84;4989026;28;20180;-67
2022/08/04 01:46:51;;;;;;;4.70;3.10;;;;;;;21.45;69.08;99746.81;4973707;28;20184;-67
2022/08/04 01:52:41;;;;;;;3.50;3.20;;;;;;;21.22;71.88;99745.84;4965490;28;20794;-68
2022/08/04 01:55:09;;;;;;;3.50;3.20;;;;;;;21.24;71.65;99747.31;4970518;28;20183;-67
2022/08/04 02:04:19;;;;;;;3.87;3.50;;;;;;;21.31;70.46;99737.03;4974946;28;20592;-67
2022/08/04 02:07:07;;;;;;;7.80;2.77;;;;;;;21.20;70.80;99743.38;4973622;28;20290;-67
2022/08/04 02:09:57;;;;;;;4.97;3.10;;;;;;;21.25;70.54;99740.28;4959945;28;20668;-68
2022/08/04 02:12:34;;;;;;;5.10;3.50;;;;;;;21.26;70.63;99740.13;4962710;28;20279;-67
2022/08/04 02:15:20;;;;;;;4.70;3.10;;;;;;;21.18;71.16;99747.16;4973680;28;20651;-67
2022/08/04 02:17:58;;;;;;;4.67;3.40;;;;;;;21.15;72.01;99737.84;4968882;28;20181;-68
2022/08/04 02:20:29;;;;;;;6.73;3.33;;;;;;;21.15;72.13;99742.22;4957569;28;20293;-67
2022/08/04 02:23:00;;;;;;;3.53;2.90;;;;;;;21.02;73.31;99735.66;4988209;28;20218;-67
2022/08/04 02:25:28;;;;;;;4.77;3.00;;;;;;;21.03;73.66;99734.69;4988094;28;20673;-67
2022/08/04 02:28:10;;;;;;;4.30;2.87;;;;;;;21.07;72.77;99737.81;4972986;28;20202;-68
2022/08/04 02:30:49;;;;;;;5.63;3.27;;;;;;;20.97;72.80;99737.94;4967399;28;20309;-67
2022/08/04 02:33:21;;;;;;;3.93;3.03;;;;;;;20.94;73.03;99728.63;4982845;28;20187;-69
2022/08/04 02:35:52;;;;;;;4.00;3.60;;;;;;;21.00;72.39;99729.81;4972190;28;20322;-66
2022/08/04 02:38:32;;;;;;;7.10;3.20;;;;;;;20.89;72.87;99723.06;4988005;28;20319;-67
2022/08/04 02:41:00;;;;;;;5.47;3.07;;;;;;;20.88;73.80;99723.25;4965195;28;20290;-67
2022/08/04 02:43:27;;;;;;;3.27;2.77;;;;;;;20.94;72.71;99728.63;4980669;28;20251;-67
2022/08/04 02:45:56;;;;;;;5.17;2.93;;;;;;;20.98;72.79;99726.53;4971956;28;20338;-67
2022/08/04 02:48:24;;;;;;;5.90;2.80;;;;;;;20.99;72.41;99720.31;4971871;28;20246;-69
2022/08/04 02:50:52;;;;;;;4.13;3.00;;;;;;;20.97;74.02;99719.66;4968736;28;20243;-67
2022/08/04 02:53:21;;;;;;;3.73;2.90;;;;;;;20.92;74.50;99717.50;4982511;28;20204;-67
2022/08/04 02:55:47;;;;;;;3.40;3.10;;;;;;;20.90;74.07;99719.47;4971999;28;20356;-67
2022/08/04 02:58:18;;;;;;;3.73;3.03;;;;;;;20.87;74.02;99716.38;4967358;28;20256;-67
2022/08/04 03:00:44;;;;;;;3.50;3.20;;;;;;;20.86;74.42;99718.16;4959206;28;20230;-67
2022/08/04 03:03:33;;;;;;;5.33;3.43;;;;;;;20.74;73.88;99720.25;4992090;28;20192;-67
2022/08/04 03:06:10;;;;;;;5.80;2.90;;;;;;;20.64;73.79;99722.97;4975370;28;20283;-67
2022/08/04 03:08:51;;;;;;;3.30;2.77;;;;;;;20.62;72.98;99718.88;4974989;28;20183;-68
2022/08/04 03:11:16;;;;;;;3.03;2.50;;;;;;;20.64;74.52;99722.16;4971628;28;20237;-67
2022/08/04 03:13:41;;;;;;;3.83;3.30;;;;;;;20.63;74.28;99723.13;4972128;28;20586;-68
2022/08/04 03:16:28;;;;;;;3.57;3.03;;;;;;;20.40;76.25;99722.88;4972870;28;20730;-67
2022/08/04 03:19:06;;;;;;;6.73;3.27;;;;;;;20.39;77.98;99723.84;4979921;28;20232;-68
2022/08/04 03:22:02;;;;;;;3.87;3.13;;;;;;;20.26;78.40;99729.53;4965793;28;20262;-68
2022/08/04 03:24:51;;;;;;;3.57;3.20;;;;;;;20.25;78.98;99725.25;4975224;28;20633;-68
2022/08/04 03:27:34;;;;;;;3.30;2.90;;;;;;;20.32;78.55;99734.13;4976562;28;20234;-68
2022/08/04 03:30:07;;;;;;;6.80;3.70;;;;;;;20.38;78.28;99728.28;4961640;28;20215;-68
2022/08/04 03:33:28;;;;;;;7.17;3.70;;;;;;;20.22;79.08;99730.78;4945302;28;20246;-68
2022/08/04 03:36:12;;;;;;;3.40;3.10;;;;;;;20.29;79.20;99729.19;4961667;28;20208;-68
2022/08/04 03:38:58;;;;;;;5.17;3.17;;;;;;;20.29;79.18;99731.81;4972331;28;20235;-68
2022/08/04 03:41:44;;;;;;;4.57;3.17;;;;;;;20.27;79.36;99723.31;4967912;28;20227;-67
2022/08/04 03:44:37;;;;;;;5.30;3.10;;;;;;;20.31;78.21;99727.25;4990734;28;20207;-67
2022/08/04 03:47:41;;;;;;;3.83;2.90;;;;;;;20.31;77.92;99733.28;4976165;28;20195;-67
2022/08/04 03:50:41;;;;;;;6.50;3.73;;;;;;;20.30;77.23;99730.84;4965738;28;20265;-67
2022/08/04 03:53:54;;;;;;;3.67;3.37;;;;;;;20.35;77.18;99732.97;4963913;28;20200;-68
2022/08/04 03:57:01;;;;;;;8.37;3.10;;;;;;;20.38;77.56;99735.25;4989677;28;20211;-67
2022/08/04 03:59:56;;;;;;;5.13;3.43;;;;;;;20.39;77.47;99734.31;4980150;28;20313;-68
2022/08/04 04:03:00;;;;;;;3.40;3.10;;;;;;;20.36;78.47;99735.44;4982405;28;20262;-62
2022/08/04 04:05:28;;;;;;;7.30;3.20;;;;;;;20.57;78.46;99744.66;4986179;28;20191;-62
2022/08/04 04:08:27;;;;;;;4.03;3.30;;;;;;;20.58;79.04;99746.31;4992497;28;20208;-62
2022/08/04 04:11:22;;;;;;;6.43;3.63;;;;;;;20.66;78.45;99741.09;4977452;28;20569;-63
2022/08/04 04:14:08;;;;;;;3.93;3.20;;;;;;;20.67;79.31;99744.53;4974520;28;20187;-61
2022/08/04 04:17:00;;;;;;;6.87;3.30;;;;;;;20.59;79.58;99750.53;4982950;28;20223;-62
2022/08/04 04:19:34;;;;;;;4.67;2.97;;;;;;;20.77;76.54;99737.41;4977746;28;20304;-62
2022/08/04 04:22:20;;;;;;;3.37;2.90;;;;;;;20.92;74.83;99729.78;4969734;28;20232;-62
2022/08/04 04:25:11;;;;;;;10.57;3.43;;;;;;;20.85;75.16;99737.44;4992291;28;20191;-62
2022/08/04 04:27:42;;;;;;;3.40;3.10;;;;;;;20.91;73.88;99739.44;4975622;28;20246;-63
2022/08/04 04:30:15;;;;;;;3.80;2.97;;;;;;;20.94;74.07;99739.09;4963785;28;20299;-63
2022/08/04 04:33:19;;;;;;;4.50;3.30;;;;;;;20.91;74.04;99735.97;4970719;28;20244;-62
2022/08/04 04:36:03;;;;;;;4.17;3.20;;;;;;;21.07;73.01;99736.03;4959280;28;20184;-62
2022/08/04 04:38:41;;;;;;;4.93;3.43;;;;;;;21.13;73.11;99742.41;4971808;28;20187;-63
2022/08/04 04:41:27;;;;;;;7.33;3.67;;;;;;;21.25;71.98;99748.16;4966819;28;20749;-63
2022/08/04 04:43:53;;;;;;;3.60;2.93;;;;;;;21.27;73.37;99743.53;4979062;28;20183;-63
2022/08/04 04:46:40;;;;;;;5.80;3.53;;;;;;;21.20;72.82;99756.47;4974815;28;20242;-62
2022/08/04 04:49:20;;;;;;;7.00;3.57;;;;;;;21.10;72.04;99745.34;4958542;28;20181;-63
2022/08/04 04:52:05;;;;;;;7.50;2.90;;;;;;;21.26;69.61;99752.38;4966807;28;20567;-63
2022/08/04 04:54:36;;;;;;;5.33;2.97;;;;;;;21.40;68.46;99740.47;4963726;28;20647;-62
2022/08/04 04:57:18;;;;;;;7.83;3.70;;;;;;;21.41;70.15;99745.53;4988691;28;20195;-63
2022/08/04 05:00:08;;;;;;;3.33;3.03;;;;;;;21.36;69.49;99767.91;4974835;28;20180;-62
2022/08/04 05:02:56;;;;;;;3.00;2.70;;;;;;;21.47;67.97;99754.53;4965173;28;20243;-62
2022/08/04 05:05:58;;;;;;;10.67;3.40;;;;;;;21.59;66.81;99753.25;4970067;28;20196;-63
2022/08/04 05:08:27;;;;;;;4.60;2.93;;;;;;;21.88;66.11;99749.31;4980678;28;20179;-63
2022/08/04 05:11:13;;;;;;;3.30;3.00;;;;;;;21.96;65.57;99745.84;4969799;28;20259;-62
2022/08/04 05:13:52;;;;;;;4.93;3.10;;;;;;;22.16;64.22;99746.28;4970195;28;20216;-63
2022/08/04 05:16:24;;;;;;;4.17;2.73;;;;;;;22.42;63.63;99749.69;4972700;28;20184;-63
2022/08/04 05:19:23;;;;;;;3.33;2.30;;;;;;;22.39;64.40;99756.09;4992267;28;20239;-62
2022/08/04 05:21:55;;;;;;;7.67;2.60;;;;;;;22.40;65.84;99757.69;4967547;28;20227;-63
2022/08/04 05:24:24;;;;;;;7.13;2.77;;;;;;;22.33;64.45;99767.22;4972613;28;20607;-62
2022/08/04 05:26:54;;;;;;;6.33;2.93;;;;;;;22.40;65.30;99763.78;4974204;28;20278;-63
2022/08/04 05:29:34;;;;;;;8.40;2.73;;;;;;;22.67;62.24;99763.50;4962991;28;20200;-62
2022/08/04 05:32:03;;;;;;;4.67;2.87;;;;;;;22.95;60.99;99771.72;4981564;28;20565;-63
2022/08/04 05:34:53;;;;;;;3.40;2.83;;;;;;;23.10;61.66;99763.94;4974167;28;20260;-63
2022/08/04 05:37:21;;;;;;;5.13;3.20;;;;;;;23.32;59.25;99761.50;4972417;28;20655;-64
2022/08/04 05:39:55;;;;;;;7.10;2.60;;;;;;;23.50;58.09;99762.00;4973426;28;20270;-64
2022/08/04 05:42:21;;;;;;;4.30;2.87;;;;;;;23.92;56.25;99769.59;4962607;28;20222;-65
2022/08/04 05:44:47;;;;;;;5.00;3.20;;;;;;;24.11;55.33;99766.44;4967186;28;20187;-65
2022/08/04 05:47:15;;;;;;;8.73;3.07;;;;;;;24.41;54.05;99769.06;4966054;28;20183;-64
2022/08/04 05:49:41;;;;;;;7.00;3.43;;;;;;;24.54;52.72;99768.41;4976020;28;20549;-64
2022/08/04 05:52:09;;;;;;;8.13;3.53;;;;;;;24.50;53.16;99770.56;4980211;28;20310;-64
2022/08/04 05:54:36;;;;;;;5.87;3.33;;;;;;;24.63;51.71;99763.84;4988410;28;20180;-64
2022/08/04 05:57:04;;;;;;;9.80;3.10;;;;;;;24.79;51.96;99770.75;4985700;28;20183;-64
2022/08/04 05:59:30;;;;;;;10.03;3.30;;;;;;;24.94;52.05;99773.34;4972109;28;20183;-64
2022/08/04 06:01:59;;;;;;;5.90;3.23;;;;;;;25.12;51.49;99776.38;4977551;28;20219;-64
2022/08/04 06:04:30;;;;;;;4.23;3.33;;;;;;;25.17;51.12;99785.50;4974067;28;20203;-64
2022/08/04 06:06:55;;;;;;;7.50;3.30;;;;;;;24.98;50.10;99779.84;4973340;28;20627;-64
2022/08/04 06:09:21;;;;;;;5.90;3.60;;;;;;;25.38;49.46;99779.47;4970778;28;20202;-64
2022/08/04 06:11:49;;;;;;;8.23;3.50;;;;;;;25.70;48.60;99786.03;4965247;28;20223;-64
2022/08/04 06:14:15;;;;;;;5.57;3.23;;;;;;;25.90;47.77;99778.28;4971764;28;20177;-63
2022/08/04 06:16:43;;;;;;;7.83;3.20;;;;;;;25.78;47.60;99782.44;4988165;28;20188;-64
2022/08/04 06:19:11;;;;;;;7.03;3.37;;;;;;;25.65;48.70;99783.16;4972365;28;20236;-64
2022/08/04 06:21:40;;;;;;;8.93;3.10;;;;;;;25.71;48.13;99784.22;4975186;28;20270;-64
2022/08/04 06:24:09;;;;;;;11.13;3.73;;;;;;;25.64;48.46;99781.53;4987560;28;20183;-64
2022/08/04 06:26:35;;;;;;;6.90;3.63;;;;;;;25.87;48.21;99770.75;4973442;28;20198;-64
2022/08/04 06:29:03;;;;;;;10.40;3.83;;;;;;;26.25;46.56;99775.69;4963470;28;20648;-64
2022/08/04 06:31:41;;;;;;;9.00;3.85;;;;;;;26.57;45.76;99786.59;4968873;28;20326;-64
2022/08/04 06:34:08;;;;;;;7.78;4.07;;;;;;;26.50;46.44;99785.75;4971433;28;20178;-65
2022/08/04 06:36:36;;;;;;;6.95;3.53;;;;;;;26.65;46.25;99782.16;4971411;28;20172;-63
2022/08/04 06:39:03;;;;;;;7.65;3.70;;;;;;;26.63;46.03;99782.38;4960503;28;20354;-64
2022/08/04 06:41:30;;;;;;;11.25;3.95;;;;;;;26.80;45.91;99784.69;4967280;28;20241;-65
2022/08/04 06:44:02;;;;;;;10.02;3.50;;;;;;;26.89;45.98;99788.75;4964368;28;20187;-64
2022/08/04 06:46:28;;;;;;;7.03;3.35;;;;;;;27.46;44.48;99781.38;4966518;28;20279;-65
2022/08/04 06:48:55;;;;;;;5.13;3.15;;;;;;;28.27;41.25;99787.41;4970995;28;20234;-76
2022/08/04 06:51:21;;;;;;;4.55;3.17;;;;;;;29.11;39.21;99787.47;4968314;28;20236;-79
2022/08/04 06:53:47;;;;;;;6.10;3.03;;;;;;;30.91;35.78;99788.59;4973146;28;20185;-78
2022/08/04 06:56:15;;;;;;;9.68;2.83;;;;;;;31.65;34.18;99795.50;4960814;28;20181;-81
2022/08/04 06:58:42;;;;;;;6.47;3.10;;;;;;;31.32;33.91;99802.13;4959632;28;20268;-76
2022/08/04 07:01:09;;;;;;;7.13;2.88;;;;;;;31.43;33.65;99793.38;4955487;28;20219;-78
2022/08/04 07:03:35;;;;;;;11.85;2.70;;;;;;;31.26;33.87;99801.22;4973347;28;20192;-77
2022/08/04 07:06:01;;;;;;;4.65;2.85;;;;;;;31.89;33.30;99790.97;4971690;28;20188;-78
2022/08/04 07:08:27;;;;;;;5.05;2.85;;;;;;;33.27;31.11;99797.41;4975107;28;20269;-78
2022/08/04 07:10:53;;;;;;;8.63;3.05;;;;;;;33.29;31.09;99798.00;4972121;28;20223;-76
2022/08/04 07:13:19;;;;;;;9.00;3.28;;;;;;;33.31;30.50;99808.41;4983326;28;20196;-78
2022/08/04 07:15:47;;;;;;;7.00;2.97;;;;;;;32.24;32.07;99797.31;4964724;28;20306;-79
2022/08/04 07:18:12;;;;;;;4.95;2.92;;;;;;;32.79;31.95;99796.03;4969737;28;20199;-76
2022/08/04 07:20:43;;;;;;;10.32;3.00;;;;;;;34.14;30.47;99796.28;4969714;28;20238;-77
2022/08/04 07:23:11;;;;;;;14.30;3.05;;;;;;;34.70;29.35;99798.84;4973363;28;20287;-76
2022/08/04 07:25:37;;;;;;;6.07;2.88;;;;;;;36.13;27.49;99792.19;4976342;28;20187;-76
2022/08/04 07:28:03;;;;;;;12.43;3.17;;;;;;;37.16;25.26;99805.84;4976252;28;20628;-77
2022/08/04 07:30:30;;;;;;;7.45;3.10;;;;;;;37.12;25.37;99799.41;4947757;28;20247;-78
2022/08/04 07:32:56;;;;;;;7.18;2.85;;;;;;;36.69;26.09;99804.16;4972500;28;20215;-76
2022/08/04 07:35:22;;;;;;;8.13;3.30;;;;;;;36.34;26.38;99809.91;4973186;28;20994;-77
2022/08/04 07:37:48;;;;;;;5.30;2.90;;;;;;;37.55;25.11;99810.66;4983877;28;20188;-77
2022/08/04 07:40:13;;;;;;;8.27;3.20;;;;;;;37.39;24.98;99809.09;4971175;28;20180;-77
2022/08/04 07:42:39;;;;;;;11.63;3.55;;;;;;;37.82;24.91;99812.22;4987365;28;20643;-76
2022/08/04 07:45:06;;;;;;;10.80;3.20;;;;;;;36.27;26.43;99803.19;4979645;28;20219;-76
2022/08/04 07:47:32;;;;;;;3.42;2.90;;;;;;;36.75;25.86;99800.41;4983602;28;20188;-77
2022/08/04 07:49:57;;;;;;;9.18;3.22;;;;;;;36.64;26.11;99802.28;4982125;28;20235;-75
2022/08/04 07:52:25;;;;;;;5.50;3.28;;;;;;;37.15;25.46;99804.22;4965350;28;20257;-79
2022/08/04 07:54:52;;;;;;;10.13;2.55;;;;;;;36.00;26.41;99806.84;4981164;28;20198;-85
2022/08/04 07:57:19;;;;;;;7.38;3.03;;;;;;;35.70;26.94;99801.03;4989676;28;20188;-79
2022/08/04 07:59:45;;;;;;;9.05;2.88;;;;;;;35.99;26.65;99799.88;4988000;28;20512;-78
2022/08/04 08:02:13;;;;;;;8.00;3.15;;;;;;;36.34;26.44;99796.53;4983695;28;20231;-80
2022/08/04 08:04:39;;;;;;;7.07;3.40;;;;;;;36.47;25.88;99797.94;4993017;28;20199;-78
2022/08/04 08:07:05;;;;;;;4.75;2.78;;;;;;;36.09;26.88;99791.09;4959413;28;20214;-78
2022/08/04 08:09:32;;;;;;;6.70;3.20;;;;;;;36.23;25.74;99783.38;4950430;28;20204;-79
2022/08/04 08:11:58;;;;;;;8.23;3.10;;;;;;;38.22;23.83;99798.97;4971654;28;20223;-80
2022/08/04 08:14:24;;;;;;;5.22;3.17;;;;;;;38.51;23.13;99796.41;4979352;28;20267;-80
2022/08/04 08:16:51;;;;;;;10.85;3.03;;;;;;;38.90;22.47;99795.63;4984635;28;20183;-79
2022/08/04 08:19:17;;;;;;;4.60;2.83;;;;;;;39.22;22.56;99797.03;4988788;28;20249;-80
2022/08/04 08:21:50;;;;;;;6.97;2.53;;;;;;;39.01;22.51;99787.47;4969888;28;20224;-80
2022/08/04 08:24:16;;;;;;;11.07;3.10;;;;;;;39.26;21.51;99791.88;4988511;28;20192;-77
2022/08/04 08:26:41;;;;;;;5.68;2.50;;;;;;;40.29;20.82;99796.16;4976552;28;20196;-82
2022/08/04 08:29:07;;;;;;;10.95;2.75;;;;;;;40.41;20.73;99800.28;4974765;28;20196;-76
2022/08/04 08:31:34;;;;;;;9.85;2.15;;;;;;;41.19;19.98;99798.03;4975062;28;20232;-82
2022/08/04 08:34:00;;;;;;;6.50;2.83;;;;;;;40.87;19.57;99798.84;4966954;28;20206;-81
2022/08/04 08:36:37;;;;;;;5.72;2.40;;;;;;;39.91;20.05;99798.75;4977969;28;20294;-78
2022/08/04 08:39:20;;;;;;;4.32;2.53;;;;;;;40.38;20.27;99798.16;4973505;28;20184;-81
2022/08/04 08:42:19;;;;;;;7.95;2.83;;;;;;;41.04;19.97;99803.72;4966159;28;20239;-82
2022/08/04 08:45:18;;;;;;;13.85;2.92;;;;;;;40.90;19.52;99799.03;4971855;28;20176;-83
2022/08/04 08:48:18;;;;;;;8.68;2.50;;;;;;;40.16;20.31;99799.56;4988434;28;20179;-83
2022/08/04 08:50:51;;;;;;;8.73;2.60;;;;;;;41.03;20.21;99786.72;4985144;28;20237;-83
2022/08/04 08:53:37;;;;;;;9.52;2.85;;;;;;;40.81;19.54;99788.13;5001561;28;20211;-81
2022/08/04 08:56:11;;;;;;;6.75;2.60;;;;;;;41.37;19.29;99788.28;4978214;28;20198;-77
2022/08/04 08:59:07;;;;;;;8.65;3.15;;;;;;;42.26;18.57;99793.56;4971614;28;20187;-78
2022/08/04 09:01:57;;;;;;;6.72;2.65;;;;;;;41.54;20.00;99795.81;4973870;28;20251;-79
2022/08/04 09:04:29;;;;;;;3.92;2.58;;;;;;;41.78;18.68;99786.75;4973991;28;20247;-77
2022/08/04 09:07:08;;;;;;;9.95;2.72;;;;;;;41.81;20.27;99788.81;4981488;28;20183;-78
2022/08/04 09:10:01;;;;;;;7.57;2.67;;;;;;;42.43;18.29;99795.66;4978033;28;20236;-79
2022/08/04 09:12:56;;;;;;;6.40;2.58;;;;;;;42.81;18.57;99792.66;4961292;28;20706;-77
2022/08/04 09:15:48;;;;;;;7.00;2.13;;;;;;;44.35;16.70;99789.59;4982886;28;20186;-77
2022/08/04 09:18:51;;;;;;;4.25;2.25;;;;;;;45.05;15.63;99796.88;4981691;28;20241;-80
2022/08/04 09:22:00;;;;;;;6.47;2.30;;;;;;;42.11;17.43;99783.91;4971076;28;20614;-80
2022/08/04 09:24:42;;;;;;;3.47;2.35;;;;;;;42.47;17.86;99791.25;4971745;28;20246;-82
2022/08/04 09:27:17;;;;;;;3.97;2.35;;;;;;;42.72;17.93;99787.19;4978989;28;20282;-80
2022/08/04 09:30:01;;;;;;;6.10;2.30;;;;;;;40.08;19.60;99784.00;4973716;28;20290;-79
2022/08/04 09:32:40;;;;;;;6.75;2.00;;;;;;;42.23;18.91;99794.19;4975225;28;20255;-83
2022/08/04 09:35:23;;;;;;;9.07;2.65;;;;;;;43.84;16.42;99789.19;4978966;28;20218;-76
2022/08/04 09:38:07;;;;;;;5.78;2.45;;;;;;;42.84;17.27;99794.72;4969865;28;20259;-75
2022/08/04 09:40:44;;;;;;;7.38;2.38;;;;;;;42.77;17.81;99788.94;4972642;28;20230;-76
2022/08/04 09:43:31;;;;;;;5.78;2.50;;;;;;;40.91;19.29;99780.97;4971325;28;20191;-74
2022/08/04 09:46:16;;;;;;;4.72;2.65;;;;;;;42.18;18.12;99786.22;4969918;28;20267;-74
2022/08/04 09:49:11;;;;;;;5.68;2.70;;;;;;;42.97;17.75;99789.53;4970085;28;20191;-74
2022/08/04 09:51:40;;;;;;;3.58;2.47;;;;;;;43.66;17.00;99780.19;4964559;28;20314;-75
2022/08/04 09:54:27;;;;;;;5.35;2.30;;;;;;;44.43;16.10;99783.38;4977478;28;20282;-73
2022/08/04 09:57:15;;;;;;;3.15;2.30;;;;;;;45.28;15.42;99792.81;4974527;28;20191;-75
2022/08/04 09:59:47;;;;;;;4.60;2.17;;;;;;;45.62;15.00;99789.50;4967600;28;20191;-75
2022/08/04 10:02:15;;;;;;;5.18;2.25;;;;;;;43.65;16.96;99787.53;4975596;28;20219;-75
2022/08/04 10:04:43;;;;;;;6.13;2.35;;;;;;;45.52;16.34;99788.72;4973124;28;20258;-75
2022/08/04 10:07:42;;;;;;;3.47;2.15;;;;;;;46.64;14.90;99782.03;4955587;28;20206;-74
2022/08/04 10:10:29;;;;;;;4.10;2.17;;;;;;;47.13;13.31;99783.34;4963281;28;20215;-74
2022/08/04 10:13:13;;;;;;;7.30;2.17;;;;;;;46.89;13.98;99784.84;4990636;28;20179;-76
2022/08/04 10:15:53;;;;;;;10.23;2.20;;;;;;;47.00;13.24;99783.31;4978060;28;20226;-75
2022/08/04 10:18:49;;;;;;;3.38;1.83;;;;;;;47.55;13.27;99774.97;4991108;28;20186;-75
2022/08/04 10:21:33;;;;;;;6.28;2.00;;;;;;;47.33;13.58;99768.03;4980293;28;20318;-77
2022/08/04 10:24:19;;;;;;;3.85;2.05;;;;;;;45.04;15.23;99762.69;4991755;28;20218;-75
2022/08/04 10:27:27;;;;;;;4.65;2.08;;;;;;;42.74;17.06;99747.09;4974363;28;20217;-75
2022/08/04 10:30:01;;;;;;;7.05;1.80;;;;;;;44.64;15.38;99753.66;4965057;28;20370;-76
2022/08/04 10:32:52;;;;;;;9.32;2.55;;;;;;;43.99;16.74;99748.09;4963936;28;20609;-74
2022/08/04 10:35:25;;;;;;;7.03;1.80;;;;;;;45.24;15.95;99745.75;4967426;28;20242;-77
2022/08/04 10:38:09;;;;;;;6.05;1.90;;;;;;;46.30;14.74;99750.53;4981220;28;20178;-78
2022/08/04 10:40:46;;;;;;;6.60;1.92;;;;;;;46.32;13.67;99751.00;4966459;28;20238;-77
2022/08/04 10:43:32;;;;;;;5.65;2.60;;;;;;;45.64;14.72;99738.34;4977914;28;20197;-75
2022/08/04 10:46:04;;;;;;;8.85;2.13;;;;;;;44.70;15.08;99737.25;4975868;28;20190;-76
2022/08/04 10:49:01;;;;;;;5.28;1.90;;;;;;;43.47;15.71;99737.13;4989823;28;20556;-74
2022/08/04 10:51:42;;;;;;;4.65;1.90;;;;;;;40.61;18.18;99729.16;4962722;28;20652;-75
2022/08/04 10:54:25;;;;;;;2.35;1.70;;;;;;;40.34;19.59;99717.13;4970025;28;20199;-72
2022/08/04 10:56:58;;;;;;;5.07;1.80;;;;;;;40.06;19.46;99716.97;4968380;28;20262;-75
2022/08/04 10:59:31;;;;;;;4.28;1.88;;;;;;;39.54;20.74;99716.78;4976929;28;20195;-76
2022/08/04 11:02:07;;;;;;;3.40;1.75;;;;;;;38.99;20.71;99711.66;4960926;28;20223;-76
2022/08/04 11:04:58;;;;;;;4.72;1.92;;;;;;;37.97;21.55;99716.63;4966431;28;20216;-76
2022/08/04 11:07:25;;;;;;;9.80;2.03;;;;;;;37.91;20.73;99710.50;4981215;28;20187;-75
2022/08/04 11:09:51;;;;;;;7.20;1.90;;;;;;;37.14;21.81;99703.44;4957649;28;20216;-75
2022/08/04 11:12:25;;;;;;;7.30;2.03;;;;;;;37.29;22.71;99705.28;4969211;28;20250;-76
2022/08/04 11:14:54;;;;;;;6.53;1.98;;;;;;;37.04;21.93;99706.13;4965349;28;20191;-74
2022/08/04 11:17:25;;;;;;;4.10;1.80;;;;;;;36.84;22.05;99702.34;4983263;28;20230;-75
2022/08/04 11:20:02;;;;;;;6.25;1.85;;;;;;;36.71;22.99;99692.19;4986185;28;20234;-74
2022/08/04 11:22:28;;;;;;;5.55;1.95;;;;;;;35.98;22.30;99693.91;4949104;28;20294;-74
2022/08/04 11:25:18;;;;;;;3.95;1.73;;;;;;;36.03;22.81;99696.59;4975902;28;20670;-74
2022/08/04 11:28:14;;;;;;;6.63;3.80;;;;;;;35.69;23.28;99691.63;4974077;28;20190;-75
2022/08/04 11:30:50;;;;;;;4.88;2.08;;;;;;;35.82;22.99;99691.13;4947935;28;20247;-75
2022/08/04 11:33:26;;;;;;;5.05;1.95;;;;;;;36.03;23.64;99697.41;4976844;28;20230;-74
2022/08/04 11:36:36;;;;;;;4.25;1.85;;;;;;;36.45;21.73;99695.63;4974968;28;20187;-72
2022/08/04 11:39:17;;;;;;;4.18;1.52;;;;;;;36.57;21.11;99692.72;4971427;28;20187;-72
2022/08/04 11:42:05;;;;;;;2.90;1.48;;;;;;;36.93;22.76;99697.31;4928555;28;20235;-74
2022/08/04 11:44:36;;;;;;;4.03;1.48;;;;;;;37.15;21.72;99694.28;4950144;28;20604;-75
2022/08/04 11:47:08;;;;;;;2.22;1.35;;;;;;;36.86;20.95;99688.72;4976270;28;20219;-74
2022/08/04 11:49:56;;;;;;;3.90;1.60;;;;;;;36.58;21.42;99688.97;4958647;28;20195;-75
2022/08/04 11:52:23;;;;;;;6.65;1.90;;;;;;;36.88;22.02;99689.25;4947215;28;20568;-74
2022/08/04 11:54:50;;;;;;;6.75;1.77;;;;;;;37.01;20.73;99691.38;4973361;28;20200;-76
2022/08/04 11:57:17;;;;;;;4.10;1.50;;;;;;;37.22;21.79;99686.78;4972943;28;20238;-73
2022/08/04 11:59:44;;;;;;;2.50;1.67;;;;;;;37.33;21.42;99684.88;4956117;28;20203;-74
2022/08/04 12:02:19;;;;;;;1.67;1.40;;;;;;;37.47;21.18;99683.28;4968326;28;20794;-73
2022/08/04 12:04:57;;;;;;;6.57;1.70;;;;;;;37.55;21.33;99681.91;4957842;28;20192;-72
2022/08/04 12:07:57;;;;;;;2.00;1.50;;;;;;;37.59;20.42;99684.84;4975545;28;20208;-71
2022/08/04 12:10:35;;;;;;;3.28;1.60;;;;;;;37.83;20.22;99682.34;4972602;28;20240;-69
2022/08/04 12:13:11;;;;;;;1.35;1.20;;;;;;;37.56;19.97;99675.47;4974553;28;20229;-72
2022/08/04 12:16:00;;;;;;;1.65;1.20;;;;;;;37.34;19.77;99681.16;4983069;28;20206;-69
2022/08/04 12:18:46;;;;;;;3.42;1.38;;;;;;;37.66;19.86;99668.44;4978173;28;20234;-73
2022/08/04 12:21:28;;;;;;;3.85;1.30;;;;;;;37.58;18.88;99675.19;4959354;28;20239;-69
2022/08/04 12:24:01;;;;;;;4.60;1.52;;;;;;;37.40;18.08;99666.66;4986899;28;20194;-73
2022/08/04 12:26:31;;;;;;;2.50;1.30;;;;;;;37.09;19.61;99665.91;4969671;28;20659;-74
2022/08/04 12:29:02;;;;;;;1.08;1.08;;;;;;;37.06;18.26;99659.19;4976967;28;20234;-76
2022/08/04 12:31:51;;;;;;;4.35;1.20;;;;;;;37.10;18.69;99654.91;4978063;28;20239;-72
2022/08/04 12:34:31;;;;;;;7.18;1.80;;;;;;;37.04;18.43;99652.50;4976243;28;20271;-70
2022/08/04 12:37:19;;;;;;;4.63;1.27;;;;;;;37.01;18.89;99650.38;4975052;28;20600;-87
2022/08/04 12:39:49;;;;;;;5.13;1.60;;;;;;;37.47;19.28;99653.78;4972688;28;20279;-75
2022/08/04 12:42:22;;;;;;;2.17;1.30;;;;;;;37.87;18.08;99643.16;4960689;28;20706;-76
2022/08/04 12:44:53;;;;;;;2.05;1.33;;;;;;;38.25;19.06;99639.94;4975807;28;20180;-80
2022/08/04 12:47:24;;;;;;;4.55;1.50;;;;;;;38.09;17.77;99641.94;4977591;28;20184;-81
2022/08/04 12:49:51;;;;;;;1.42;1.20;;;;;;;37.72;18.34;99649.38;4970849;28;20196;-70